createdAt,value
2023-03-05T00:02:05.883Z,99460.19
2023-03-05T00:07:12.336Z,99454.95
2023-03-05T00:12:15.292Z,99452.77
2023-03-05T00:17:18.415Z,99448.91
2023-03-05T00:22:21.691Z,99440.93
2023-03-05T00:27:24.599Z,99431.77
2023-03-05T00:32:27.446Z,99424.11
2023-03-05T00:37:30.234Z,99421.22
2023-03-05T00:42:38.593Z,99414.73
2023-03-05T00:47:41.337Z,99412.22
2023-03-05T00:52:44.115Z,99407.64
2023-03-05T00:57:46.797Z,99405.60
2023-03-05T01:02:49.638Z,99394.56
2023-03-05T01:07:53.967Z,99392.88
2023-03-05T01:12:57.849Z,99386.27
2023-03-05T01:18:00.593Z,99384.77
2023-03-05T01:23:03.498Z,99388.06
2023-03-05T01:28:06.235Z,99379.80
2023-03-05T01:33:09.598Z,99377.33
2023-03-05T01:38:12.400Z,99374.80
2023-03-05T01:43:29.319Z,99366.35
2023-03-05T01:48:32.174Z,99364.35
2023-03-05T01:53:35.039Z,99367.45
2023-03-05T01:58:39.900Z,99364.23
2023-03-05T02:03:43.018Z,99358.81
2023-03-05T02:08:45.757Z,99357.28
2023-03-05T02:13:48.522Z,99350.83
2023-03-05T02:18:51.326Z,99350.33
2023-03-05T02:23:54.408Z,99347.44
2023-03-05T02:29:01.093Z,99339.77
2023-03-05T02:34:03.793Z,99335.52
2023-03-05T02:39:07.264Z,99331.61
2023-03-05T02:44:10.037Z,99326.89
2023-03-05T02:49:12.797Z,99326.25
2023-03-05T02:54:15.625Z,99323.73
2023-03-05T02:59:18.375Z,99325.95
2023-03-05T03:04:21.173Z,99324.14
2023-03-05T03:09:23.860Z,99321.96
2023-03-05T03:14:26.733Z,99319.09
2023-03-05T03:19:29.533Z,99313.14
2023-03-05T03:24:33.760Z,99304.21
2023-03-05T03:29:37.210Z,99298.91
2023-03-05T03:34:40.132Z,99294.53
2023-03-05T03:39:42.893Z,99282.33
2023-03-05T03:44:45.640Z,99272.22
2023-03-05T03:49:48.340Z,99262.17
2023-03-05T03:54:53.244Z,99257.80
2023-03-05T03:59:56.058Z,99249.73
2023-03-05T04:04:58.846Z,99240.73
2023-03-05T04:10:01.647Z,99232.98
2023-03-05T04:15:08.049Z,99226.64
2023-03-05T04:20:11.739Z,99218.05
2023-03-05T04:25:14.968Z,99212.47
2023-03-05T04:30:18.060Z,99201.46
2023-03-05T04:35:20.825Z,99194.79
2023-03-05T04:40:23.572Z,99191.55
2023-03-05T04:45:26.390Z,99187.30
2023-03-05T04:50:29.103Z,99181.89
2023-03-05T04:55:31.873Z,99173.94
2023-03-05T05:00:34.670Z,99169.17
2023-03-05T05:05:37.987Z,99175.06
2023-03-05T05:10:41.571Z,99165.22
2023-03-05T05:15:44.292Z,99162.52
2023-03-05T05:20:47.924Z,99163.91
2023-03-05T05:26:01.619Z,99164.11
2023-03-05T05:31:08.643Z,99165.19
2023-03-05T05:36:15.373Z,99170.62
2023-03-05T05:41:19.638Z,99167.85
2023-03-05T05:46:23.029Z,99173.34
2023-03-05T05:51:26.252Z,99174.95
2023-03-05T05:56:29.050Z,99179.22
2023-03-05T06:01:34.720Z,99176.80
2023-03-05T06:06:37.945Z,99167.52
2023-03-05T06:11:40.726Z,99167.99
2023-03-05T06:16:43.592Z,99166.70
2023-03-05T06:21:46.382Z,99167.30
2023-03-05T06:26:49.388Z,99168.33
2023-03-05T06:31:52.348Z,99165.33
2023-03-05T06:36:55.667Z,99158.87
2023-03-05T06:41:58.768Z,99165.50
2023-03-05T06:47:01.469Z,99165.98
2023-03-05T06:52:06.013Z,99165.98
2023-03-05T06:57:10.590Z,99163.44
2023-03-05T07:02:14.384Z,99159.20
2023-03-05T07:07:17.385Z,99160.16
2023-03-05T07:12:20.121Z,99161.86
2023-03-05T07:17:22.889Z,99153.08
2023-03-05T07:22:25.606Z,99152.06
2023-03-05T07:27:28.493Z,99146.21
2023-03-05T07:32:31.528Z,99150.06
2023-03-05T07:37:34.709Z,99148.45
2023-03-05T07:42:37.427Z,99143.81
2023-03-05T07:47:40.491Z,99139.33
2023-03-05T07:52:43.221Z,99131.77
2023-03-05T07:57:45.978Z,99127.98
2023-03-05T08:02:50.217Z,99130.39
2023-03-05T08:07:53.132Z,99126.23
2023-03-05T08:12:55.958Z,99131.25
2023-03-05T08:17:59.855Z,99133.20
2023-03-05T08:23:03.495Z,99131.27
2023-03-05T08:28:06.243Z,99129.95
2023-03-05T08:33:09.112Z,99127.50
2023-03-05T08:38:11.916Z,99120.98
2023-03-05T08:43:15.458Z,99112.12
2023-03-05T08:48:18.141Z,99107.71
2023-03-05T08:53:20.854Z,99110.46
2023-03-05T08:58:24.637Z,99111.02
2023-03-05T09:03:27.892Z,99109.89
2023-03-05T09:08:30.632Z,99105.77
2023-03-05T09:13:34.010Z,99104.92
2023-03-05T09:18:36.980Z,99108.14
2023-03-05T09:23:40.964Z,99106.87
2023-03-05T09:28:43.714Z,99103.83
2023-03-05T09:33:48.046Z,99106.35
2023-03-05T09:38:51.393Z,99102.23
2023-03-05T09:44:02.466Z,99093.87
2023-03-05T09:49:13.280Z,99092.67
2023-03-05T09:54:41.738Z,99084.28
2023-03-05T09:59:59.515Z,99082.20
2023-03-05T10:05:43.585Z,99076.30
2023-03-05T10:10:51.202Z,99076.08
2023-03-05T10:16:06.224Z,99067.63
2023-03-05T10:21:32.209Z,99067.20
2023-03-05T10:27:13.430Z,99066.77
2023-03-05T10:32:36.276Z,99055.08
2023-03-05T10:37:41.997Z,99055.47
2023-03-05T10:43:15.710Z,99061.36
2023-03-05T10:48:59.263Z,99062.23
2023-03-05T10:54:04.632Z,99066.05
2023-03-05T10:59:07.342Z,99060.34
2023-03-05T11:04:28.687Z,99051.27
2023-03-05T11:09:35.556Z,99043.41
2023-03-05T11:14:41.739Z,99032.78
2023-03-05T11:19:44.572Z,99028.79
2023-03-05T11:25:05.689Z,99024.89
2023-03-05T11:30:29.166Z,99015.15
2023-03-05T11:35:35.138Z,99013.64
2023-03-05T11:40:37.875Z,99013.91
2023-03-05T11:45:42.275Z,99007.15
2023-03-05T11:50:48.966Z,99007.02
2023-03-05T11:56:04.166Z,99003.90
2023-03-05T12:01:20.992Z,99008.11
2023-03-05T12:06:37.732Z,99023.69
2023-03-05T12:11:41.239Z,99042.21
2023-03-05T12:16:53.475Z,99027.98
2023-03-05T12:21:57.500Z,99011.94
2023-03-05T12:27:03.063Z,99016.10
2023-03-05T12:32:26.104Z,99013.46
2023-03-05T12:37:28.940Z,99000.73
2023-03-05T12:42:31.661Z,98997.75
2023-03-05T12:47:34.383Z,98998.42
2023-03-05T12:52:42.277Z,98999.10
2023-03-05T12:57:47.285Z,98988.77
2023-03-05T13:02:56.429Z,98985.67
2023-03-05T13:08:18.174Z,98985.66
2023-03-05T13:13:21.718Z,98981.23
2023-03-05T13:18:27.401Z,98979.33
2023-03-05T13:23:32.653Z,98975.50
2023-03-05T13:28:37.516Z,98976.52
2023-03-05T13:33:40.618Z,98979.80
2023-03-05T13:38:48.636Z,98980.15
2023-03-05T13:43:55.212Z,98978.75
2023-03-05T13:49:18.057Z,98980.33
2023-03-05T13:54:23.412Z,98974.91
2023-03-05T13:59:29.706Z,98969.67
2023-03-05T14:04:38.042Z,98967.48
2023-03-05T14:09:40.708Z,98966.18
2023-03-05T14:14:44.157Z,98957.63
2023-03-05T14:19:46.951Z,98952.79
2023-03-05T14:24:53.575Z,98945.52
2023-03-05T14:29:56.331Z,98950.00
2023-03-05T14:35:01.943Z,98946.69
2023-03-05T14:40:32.109Z,98948.65
2023-03-05T14:45:38.453Z,98949.58
2023-03-05T14:50:46.012Z,98949.16
2023-03-05T14:55:51.461Z,98950.77
2023-03-05T15:00:55.601Z,98952.05
2023-03-05T15:05:59.569Z,98950.94
2023-03-05T15:11:04.069Z,98950.08
2023-03-05T15:16:07.986Z,98952.78
2023-03-05T15:21:11.131Z,98946.95
2023-03-05T15:26:15.467Z,98949.33
2023-03-05T15:31:18.689Z,98948.22
2023-03-05T15:36:21.572Z,98950.20
2023-03-05T15:41:24.963Z,98948.89
2023-03-05T15:46:27.840Z,98947.78
2023-03-05T15:51:30.615Z,98954.48
2023-03-05T15:56:33.369Z,98956.19
2023-03-05T16:01:39.288Z,98955.40
2023-03-05T16:06:43.723Z,98957.14
2023-03-05T16:11:49.561Z,98957.64
2023-03-05T16:16:55.543Z,98964.52
2023-03-05T16:21:58.223Z,98970.91
2023-03-05T16:27:01.039Z,98973.67
2023-03-05T16:32:04.943Z,98972.50
2023-03-05T16:37:07.789Z,98975.41
2023-03-05T16:42:10.784Z,98979.48
2023-03-05T16:47:13.659Z,98979.83
2023-03-05T16:52:19.720Z,98975.23
2023-03-05T16:57:25.788Z,98979.58
2023-03-05T17:02:28.853Z,98981.10
2023-03-05T17:07:31.646Z,98977.92
2023-03-05T17:12:34.332Z,98982.27
2023-03-05T17:17:38.921Z,98979.67
2023-03-05T17:22:42.332Z,98980.48
2023-03-05T17:27:45.112Z,98981.74
2023-03-05T17:32:48.116Z,98982.16
2023-03-05T17:37:53.531Z,98979.81
2023-03-05T17:42:56.273Z,98977.42
2023-03-05T17:47:59.022Z,98976.40
2023-03-05T17:53:01.880Z,98974.84
2023-03-05T17:58:04.678Z,98978.63
2023-03-05T18:03:07.613Z,98972.64
2023-03-05T18:08:10.389Z,98977.21
2023-03-05T18:13:13.187Z,98979.14
2023-03-05T18:18:17.327Z,98976.19
2023-03-05T18:23:20.050Z,98976.83
2023-03-05T18:28:22.882Z,98972.95
2023-03-05T18:33:25.815Z,98978.41
2023-03-05T18:38:29.901Z,98978.80
2023-03-05T18:43:32.656Z,98980.01
2023-03-05T18:48:35.387Z,98979.48
2023-03-05T18:53:38.155Z,98978.89
2023-03-05T18:58:40.972Z,98976.32
2023-03-05T19:03:45.198Z,98973.58
2023-03-05T19:08:50.776Z,98981.14
2023-03-05T19:13:53.456Z,98983.52
2023-03-05T19:19:20.131Z,98984.66
2023-03-05T19:24:25.462Z,98982.64
2023-03-05T19:29:33.271Z,98980.98
2023-03-05T19:34:36.761Z,98980.06
2023-03-05T19:39:39.676Z,98983.45
2023-03-05T19:44:42.353Z,98986.70
2023-03-05T19:49:45.079Z,98987.48
2023-03-05T19:54:47.796Z,98991.54
2023-03-05T19:59:53.701Z,98993.64
2023-03-05T20:04:57.538Z,98992.13
2023-03-05T20:10:00.972Z,98995.75
2023-03-05T20:15:03.943Z,98996.36
2023-03-05T20:20:07.549Z,98995.34
2023-03-05T20:25:12.080Z,98994.73
2023-03-05T20:30:17.558Z,98991.67
2023-03-05T20:35:20.899Z,98990.99
2023-03-05T20:40:23.687Z,98985.95
2023-03-05T20:45:26.388Z,98982.70
2023-03-05T20:50:29.052Z,98980.30
2023-03-05T20:55:32.724Z,98980.92
2023-03-05T21:00:37.282Z,98974.14
2023-03-05T21:05:40.080Z,98971.94
2023-03-05T21:10:42.956Z,98969.91
2023-03-05T21:15:45.734Z,98968.32
2023-03-05T21:20:48.528Z,98966.81
2023-03-05T21:25:51.306Z,98960.70
2023-03-05T21:30:55.840Z,98958.77
2023-03-05T21:35:59.118Z,98958.85
2023-03-05T21:41:03.148Z,98953.58
2023-03-05T21:46:06.083Z,98953.58
2023-03-05T21:51:09.151Z,98949.48
2023-03-05T21:56:23.547Z,98949.15
2023-03-05T22:01:26.595Z,98945.41
2023-03-05T22:06:29.389Z,98943.01
2023-03-05T22:11:32.138Z,98940.89
2023-03-05T22:16:34.970Z,98943.16
2023-03-05T22:21:37.948Z,98943.36
2023-03-05T22:26:41.749Z,98940.33
2023-03-05T22:31:44.724Z,98937.85
2023-03-05T22:36:47.476Z,98930.92
2023-03-05T22:41:50.573Z,98922.80
2023-03-05T22:46:53.384Z,98921.27
2023-03-05T22:51:56.062Z,98916.07
2023-03-05T22:56:59.277Z,98923.71
2023-03-05T23:02:01.969Z,98926.77
2023-03-05T23:07:04.922Z,98921.77
2023-03-05T23:12:08.257Z,98915.96
2023-03-05T23:17:11.015Z,98913.84
2023-03-05T23:22:14.223Z,98916.39
2023-03-05T23:27:19.102Z,98906.30
2023-03-05T23:32:21.836Z,98903.88
2023-03-05T23:37:24.611Z,98904.60
2023-03-05T23:42:27.685Z,98899.61
2023-03-05T23:47:30.490Z,98899.05
2023-03-05T23:52:33.904Z,98895.82
2023-03-05T23:57:37.036Z,98890.61
